Time;durP1;ratioP1;P1;durP2;ratioP2;P2;SDS_P1;SDS_P2;PMS_P1;PMS_P2;Temp;Humidity;BMP_temperature;BMP_pressure;BME280_temperature;BME280_humidity;BME280_pressure;Samples;Min_cycle;Max_cycle;Signal;HPM_P1;HPM_P2
2022/09/24 00:00:50;;;;;;;4.15;3.25;;;13.30;99.90;;;;;;5030906;28;20021;-56
2022/09/24 00:03:18;;;;;;;6.20;3.13;;;13.30;99.90;;;;;;5031902;28;20051;-57
2022/09/24 00:05:45;;;;;;;2.60;2.10;;;13.30;99.90;;;;;;5032390;28;20032;-57
2022/09/24 00:08:12;;;;;;;7.47;2.55;;;13.30;99.90;;;;;;5030969;28;20071;-57
2022/09/24 00:10:43;;;;;;;3.58;2.60;;;13.30;99.90;;;;;;5032222;28;20103;-57
2022/09/24 00:13:11;;;;;;;3.05;2.53;;;13.40;99.90;;;;;;5031845;28;20371;-57
2022/09/24 00:15:39;;;;;;;5.00;2.72;;;13.30;99.90;;;;;;5032143;28;20553;-57
2022/09/24 00:18:06;;;;;;;4.22;2.90;;;13.30;99.90;;;;;;5031906;28;20026;-56
2022/09/24 00:20:33;;;;;;;3.35;2.53;;;13.30;99.90;;;;;;5032046;28;20017;-57
2022/09/24 00:23:00;;;;;;;3.40;2.60;;;13.30;99.90;;;;;;5031526;28;20022;-57
2022/09/24 00:28:12;;;;;;;3.38;3.08;;;13.30;99.90;;;;;;5032148;28;20410;-57
2022/09/24 00:30:41;;;;;;;2.65;2.40;;;13.30;99.90;;;;;;5031814;28;20059;-57
2022/09/24 00:33:07;;;;;;;3.15;2.78;;;13.20;99.90;;;;;;5030142;28;20607;-57
2022/09/24 00:35:35;;;;;;;3.95;2.58;;;13.20;99.90;;;;;;5031666;28;20514;-57
2022/09/24 00:38:00;;;;;;;3.28;2.95;;;13.20;99.90;;;;;;5031426;28;20442;-57
2022/09/24 00:40:34;;;;;;;3.88;3.00;;;13.20;99.90;;;;;;5031533;28;20033;-57
2022/09/24 00:43:00;;;;;;;3.28;2.80;;;13.30;99.90;;;;;;5031313;28;20017;-57
2022/09/24 00:45:28;;;;;;;2.95;2.55;;;13.20;99.90;;;;;;5031540;28;20383;-57
2022/09/24 00:47:54;;;;;;;2.88;2.58;;;13.10;99.90;;;;;;5031372;28;20055;-56
2022/09/24 00:50:30;;;;;;;3.25;2.83;;;13.10;99.90;;;;;;5031405;28;20116;-56
2022/09/24 00:53:05;;;;;;;4.35;2.90;;;13.10;99.90;;;;;;5031078;28;20068;-56
2022/09/24 00:55:34;;;;;;;3.28;2.60;;;13.10;99.90;;;;;;5029287;28;20136;-57
2022/09/24 00:58:02;;;;;;;3.63;3.00;;;13.00;99.90;;;;;;5031118;28;20048;-57
2022/09/24 01:00:29;;;;;;;3.45;3.03;;;13.00;99.90;;;;;;5031297;28;20032;-56
2022/09/24 01:03:08;;;;;;;3.25;2.80;;;13.00;99.90;;;;;;5030831;28;20029;-56
2022/09/24 01:05:36;;;;;;;3.30;3.00;;;13.10;99.90;;;;;;5030945;28;20093;-56
2022/09/24 01:08:02;;;;;;;3.17;2.70;;;13.10;99.90;;;;;;5031280;28;20030;-56
2022/09/24 01:11:22;;;;;;;4.85;2.97;;;13.10;99.90;;;;;;5031081;28;20026;-56
2022/09/24 01:14:12;;;;;;;3.95;3.25;;;13.10;99.90;;;;;;5008180;28;20033;-56
2022/09/24 01:17:09;;;;;;;3.55;3.03;;;13.10;99.90;;;;;;5030957;28;20563;-57
2022/09/24 01:19:59;;;;;;;3.83;3.25;;;13.20;99.90;;;;;;5029473;28;20458;-56
2022/09/24 01:22:42;;;;;;;5.32;3.10;;;13.20;99.90;;;;;;5029170;28;20024;-56
2022/09/24 01:25:31;;;;;;;6.63;3.35;;;13.20;99.90;;;;;;5030776;28;20057;-56
2022/09/24 01:28:18;;;;;;;3.90;3.10;;;13.20;99.90;;;;;;5030801;28;20400;-56
2022/09/24 01:30:48;;;;;;;4.25;2.92;;;13.20;99.90;;;;;;5030671;28;20021;-57
2022/09/24 01:33:19;;;;;;;5.93;3.33;;;13.10;99.90;;;;;;5030260;28;20030;-56
2022/09/24 01:35:50;;;;;;;4.00;2.75;;;13.10;99.90;;;;;;5030683;28;20347;-57
2022/09/24 01:38:22;;;;;;;5.78;3.30;;;13.10;99.90;;;;;;5030551;28;20026;-56
2022/09/24 01:40:50;;;;;;;3.30;2.70;;;13.00;99.90;;;;;;5030608;28;20033;-56
2022/09/24 01:43:18;;;;;;;3.88;3.08;;;13.00;99.90;;;;;;5030062;28;20018;-56
2022/09/24 01:45:45;;;;;;;4.15;2.78;;;13.00;99.90;;;;;;5030691;28;20026;-56
2022/09/24 01:48:11;;;;;;;3.63;2.90;;;13.00;99.90;;;;;;5030475;28;20388;-56
2022/09/24 01:50:47;;;;;;;7.30;3.35;;;13.00;99.90;;;;;;5030413;28;20105;-56
2022/09/24 01:53:18;;;;;;;4.32;3.35;;;13.00;99.90;;;;;;5030057;28;20386;-56
2022/09/24 01:55:52;;;;;;;4.68;3.40;;;13.00;99.90;;;;;;5030398;28;20025;-56
2022/09/24 01:58:26;;;;;;;3.85;3.22;;;13.00;99.90;;;;;;5030530;28;20036;-57
2022/09/24 02:01:06;;;;;;;5.45;3.63;;;12.90;99.90;;;;;;5030367;28;20112;-57
2022/09/24 02:03:44;;;;;;;3.95;3.08;;;12.80;99.90;;;;;;5029856;28;20028;-56
2022/09/24 02:06:16;;;;;;;6.55;3.78;;;12.80;99.90;;;;;;5028930;28;20475;-47
2022/09/24 02:08:47;;;;;;;3.67;3.33;;;12.80;99.90;;;;;;5030271;28;20029;-47
2022/09/24 02:11:20;;;;;;;3.40;3.10;;;12.70;99.90;;;;;;5030316;28;20057;-56
2022/09/24 02:13:55;;;;;;;3.63;3.10;;;12.70;99.90;;;;;;5029860;28;20037;-50
2022/09/24 02:16:25;;;;;;;4.72;3.78;;;12.70;99.90;;;;;;5029724;28;20052;-49
2022/09/24 02:18:53;;;;;;;4.80;3.35;;;12.70;99.90;;;;;;5034470;28;20036;-47
2022/09/24 02:21:22;;;;;;;4.85;3.65;;;12.70;99.90;;;;;;5034363;28;20026;-49
2022/09/24 02:23:56;;;;;;;4.88;3.40;;;12.70;99.90;;;;;;5033779;28;20073;-48
2022/09/24 02:26:22;;;;;;;3.75;3.35;;;12.70;99.90;;;;;;5034188;28;20025;-50
2022/09/24 02:28:48;;;;;;;4.65;3.70;;;12.70;99.90;;;;;;5033954;28;20033;-48
2022/09/24 02:31:18;;;;;;;6.10;3.53;;;12.70;99.90;;;;;;5032647;28;20487;-50
2022/09/24 02:36:32;;;;;;;4.90;4.03;;;12.70;99.90;;;;;;5034225;28;20037;-49
2022/09/24 02:38:58;;;;;;;5.35;3.85;;;12.70;99.90;;;;;;5033758;28;20041;-50
2022/09/24 02:41:24;;;;;;;8.48;3.78;;;12.70;99.90;;;;;;5034229;28;20120;-48
2022/09/24 02:43:51;;;;;;;4.22;3.13;;;12.70;99.90;;;;;;5033270;28;20018;-50
2022/09/24 02:46:17;;;;;;;4.65;3.97;;;12.70;99.90;;;;;;5033750;28;20049;-48
2022/09/24 02:48:43;;;;;;;4.43;3.47;;;12.60;99.90;;;;;;5032376;28;20028;-50
2022/09/24 02:51:09;;;;;;;4.43;3.53;;;12.60;99.90;;;;;;5033621;28;20029;-48
2022/09/24 02:53:35;;;;;;;3.90;3.42;;;12.60;99.90;;;;;;5033610;28;20493;-48
2022/09/24 02:56:00;;;;;;;9.52;4.28;;;12.60;99.90;;;;;;5033471;28;20053;-49
2022/09/24 02:58:27;;;;;;;3.80;3.33;;;12.60;99.90;;;;;;5033428;28;20083;-48
2022/09/24 03:00:56;;;;;;;4.05;3.42;;;12.60;99.90;;;;;;5033438;28;20029;-49
2022/09/24 03:03:22;;;;;;;7.32;3.75;;;12.60;99.90;;;;;;5033344;28;20531;-49
2022/09/24 03:05:51;;;;;;;4.55;3.70;;;12.70;99.90;;;;;;5033353;28;20434;-49
2022/09/24 03:08:17;;;;;;;8.80;4.38;;;12.60;99.90;;;;;;5033361;28;20096;-48
2022/09/24 03:10:43;;;;;;;5.30;3.97;;;12.60;99.90;;;;;;5033460;28;20394;-48
2022/09/24 03:13:09;;;;;;;6.88;5.75;;;12.60;99.90;;;;;;5031443;28;20029;-49
2022/09/24 03:15:35;;;;;;;5.28;4.78;;;12.60;99.90;;;;;;5033370;28;20398;-49
2022/09/24 03:18:01;;;;;;;4.72;4.13;;;12.60;99.90;;;;;;5033183;28;20032;-48
2022/09/24 03:20:26;;;;;;;4.70;3.88;;;12.50;99.90;;;;;;5033030;28;20091;-48
2022/09/24 03:22:52;;;;;;;5.32;4.00;;;12.50;99.90;;;;;;5031352;28;20014;-49
2022/09/24 03:25:18;;;;;;;4.80;3.63;;;12.50;99.90;;;;;;5032995;28;20087;-49
2022/09/24 03:27:44;;;;;;;4.00;3.60;;;12.40;99.90;;;;;;5032863;28;20025;-48
2022/09/24 03:32:54;;;;;;;4.82;3.85;;;12.40;99.90;;;;;;5032393;28;20109;-47
2022/09/24 03:35:20;;;;;;;6.03;4.30;;;12.40;99.90;;;;;;5032891;28;20101;-50
2022/09/24 03:37:46;;;;;;;5.07;4.00;;;12.40;99.90;;;;;;5031316;28;20055;-48
2022/09/24 03:40:11;;;;;;;6.32;3.92;;;12.30;99.90;;;;;;5032986;28;20036;-49
2022/09/24 03:42:37;;;;;;;7.68;3.95;;;12.40;99.90;;;;;;5032474;28;20033;-49
2022/09/24 03:45:04;;;;;;;6.00;4.32;;;12.30;99.90;;;;;;5032421;28;20076;-49
2022/09/24 03:47:30;;;;;;;5.70;4.35;;;12.40;99.90;;;;;;5032768;28;20021;-47
2022/09/24 03:49:56;;;;;;;6.13;4.00;;;12.40;99.90;;;;;;5032762;28;20187;-51
2022/09/24 03:52:21;;;;;;;5.18;3.90;;;12.40;99.90;;;;;;5032380;28;20049;-47
2022/09/24 03:54:47;;;;;;;4.47;3.90;;;12.30;99.90;;;;;;5032668;28;20029;-48
2022/09/24 03:57:13;;;;;;;5.07;3.97;;;12.30;99.90;;;;;;5032619;28;20036;-48
2022/09/24 03:59:43;;;;;;;4.82;4.28;;;12.30;99.90;;;;;;5032593;28;20498;-48
2022/09/24 04:02:10;;;;;;;6.70;4.90;;;12.30;99.90;;;;;;5032547;28;20033;-49
2022/09/24 04:04:36;;;;;;;7.25;5.18;;;12.30;99.90;;;;;;5032041;28;20103;-46
2022/09/24 04:07:02;;;;;;;5.50;4.90;;;12.30;99.90;;;;;;5032412;28;20033;-48
2022/09/24 04:09:28;;;;;;;6.78;5.80;;;12.30;99.90;;;;;;5032623;28;20033;-49
2022/09/24 04:11:53;;;;;;;9.85;5.30;;;12.30;99.90;;;;;;5032443;28;20117;-47
2022/09/24 04:14:20;;;;;;;6.88;5.43;;;12.30;99.90;;;;;;5032017;28;20402;-48
2022/09/24 04:16:45;;;;;;;8.07;5.60;;;12.30;99.90;;;;;;5032234;28;20072;-47
2022/09/24 04:19:14;;;;;;;7.38;5.43;;;12.30;99.90;;;;;;5032265;28;20498;-49
2022/09/24 04:21:41;;;;;;;5.85;4.90;;;12.30;99.90;;;;;;5032222;28;20025;-48
2022/09/24 04:24:07;;;;;;;7.85;5.20;;;12.20;99.90;;;;;;5031779;28;20112;-49
2022/09/24 04:26:32;;;;;;;5.63;4.78;;;12.20;99.90;;;;;;5032311;28;20109;-47
2022/09/24 04:28:58;;;;;;;8.52;6.25;;;12.30;99.90;;;;;;5032421;28;20033;-48
2022/09/24 04:31:26;;;;;;;6.40;5.13;;;12.30;99.90;;;;;;5032087;28;20022;-47
2022/09/24 04:33:52;;;;;;;5.70;4.57;;;12.20;99.90;;;;;;5031433;28;20053;-48
2022/09/24 04:36:18;;;;;;;6.13;5.32;;;12.20;99.90;;;;;;5032221;28;20033;-47
2022/09/24 04:38:45;;;;;;;8.60;4.97;;;12.30;99.90;;;;;;5030074;28;20032;-47
2022/09/24 04:41:11;;;;;;;7.18;5.38;;;12.30;99.90;;;;;;5031856;28;20123;-49
2022/09/24 04:43:37;;;;;;;6.57;5.20;;;12.20;99.90;;;;;;5031399;28;20028;-48
2022/09/24 04:46:03;;;;;;;7.38;4.88;;;12.30;99.90;;;;;;5031871;28;20343;-46
2022/09/24 04:48:29;;;;;;;5.78;4.90;;;12.30;99.90;;;;;;5032164;28;20540;-48
2022/09/24 04:50:55;;;;;;;6.13;4.78;;;12.30;99.90;;;;;;5030436;28;20030;-47
2022/09/24 04:53:22;;;;;;;6.32;5.22;;;12.20;99.90;;;;;;5031428;28;20071;-48
2022/09/24 04:55:48;;;;;;;5.80;5.18;;;12.20;99.90;;;;;;5031728;28;20171;-48
2022/09/24 04:58:13;;;;;;;8.10;5.15;;;12.20;99.90;;;;;;5031398;28;20033;-48
2022/09/24 05:00:39;;;;;;;5.10;4.60;;;12.20;99.90;;;;;;5031278;28;20021;-48
2022/09/24 05:03:05;;;;;;;5.63;4.57;;;12.20;99.90;;;;;;5030837;28;20499;-48
2022/09/24 05:05:32;;;;;;;7.63;4.70;;;12.20;99.90;;;;;;5031191;28;20033;-49
2022/09/24 05:07:58;;;;;;;7.25;5.05;;;12.10;99.90;;;;;;5031187;28;20396;-49
2022/09/24 05:10:25;;;;;;;6.05;5.28;;;12.20;99.90;;;;;;5031081;28;20116;-51
2022/09/24 05:12:51;;;;;;;6.63;4.93;;;12.20;99.90;;;;;;5030554;28;20031;-49
2022/09/24 05:15:18;;;;;;;6.25;4.70;;;12.20;99.90;;;;;;5031028;28;20022;-50
2022/09/24 05:17:44;;;;;;;5.45;4.95;;;12.10;99.90;;;;;;5030802;28;20455;-49
2022/09/24 05:20:10;;;;;;;5.53;4.65;;;12.10;99.90;;;;;;5030869;28;20111;-46
2022/09/24 05:22:48;;;;;;;5.80;5.00;;;12.10;99.90;;;;;;5030343;28;20482;-47
2022/09/24 05:25:15;;;;;;;6.03;5.00;;;12.10;99.90;;;;;;5030850;28;20017;-49
2022/09/24 05:27:47;;;;;;;6.68;5.18;;;12.10;99.90;;;;;;5030679;28;20029;-46
2022/09/24 05:30:14;;;;;;;8.55;5.03;;;12.10;99.90;;;;;;5030962;28;20025;-47
2022/09/24 05:32:40;;;;;;;8.57;5.80;;;12.10;99.90;;;;;;5028900;28;20025;-46
2022/09/24 05:35:09;;;;;;;7.63;5.80;;;12.20;99.90;;;;;;5030571;28;20043;-47
2022/09/24 05:37:36;;;;;;;8.25;5.57;;;12.20;99.90;;;;;;5030631;28;20056;-47
2022/09/24 05:42:49;;;;;;;6.72;5.00;;;12.20;99.90;;;;;;5030039;28;20111;-46
2022/09/24 05:45:16;;;;;;;8.30;6.05;;;12.30;99.90;;;;;;5030741;28;20104;-47
2022/09/24 05:47:43;;;;;;;5.28;4.78;;;12.30;99.90;;;;;;5030457;28;20022;-46
2022/09/24 05:50:09;;;;;;;8.55;5.18;;;12.30;99.90;;;;;;5028855;28;20545;-46
2022/09/24 05:52:34;;;;;;;6.85;5.63;;;12.40;99.90;;;;;;5029391;28;20033;-47
2022/09/24 05:55:00;;;;;;;8.25;5.88;;;12.40;99.90;;;;;;5029018;28;20465;-45
2022/09/24 05:57:25;;;;;;;7.50;5.00;;;12.40;99.90;;;;;;5030293;28;20032;-47
2022/09/24 05:59:52;;;;;;;6.38;5.30;;;12.40;99.90;;;;;;5030238;28;20029;-49
2022/09/24 06:02:18;;;;;;;9.32;6.00;;;12.50;99.90;;;;;;5030292;28;20113;-48
2022/09/24 06:04:43;;;;;;;8.45;6.28;;;12.40;99.90;;;;;;5030112;28;20470;-48
2022/09/24 06:07:10;;;;;;;9.23;7.00;;;12.50;99.90;;;;;;5030283;28;20025;-47
2022/09/24 06:09:36;;;;;;;8.13;5.95;;;12.50;99.90;;;;;;5030095;28;20041;-49
2022/09/24 06:12:01;;;;;;;9.40;7.50;;;12.50;99.90;;;;;;5030160;28;20061;-47
2022/09/24 06:14:27;;;;;;;10.48;6.60;;;12.60;99.90;;;;;;5029774;28;20461;-47
2022/09/24 06:16:53;;;;;;;7.95;6.78;;;12.60;99.90;;;;;;5028838;28;20083;-48
2022/09/24 06:19:18;;;;;;;10.35;7.78;;;12.60;99.90;;;;;;5029998;28;20032;-49
2022/09/24 06:21:44;;;;;;;8.32;6.22;;;12.70;99.90;;;;;;5030190;28;20026;-48
2022/09/24 06:24:10;;;;;;;13.13;7.70;;;12.70;99.90;;;;;;5029868;28;20033;-47
2022/09/24 06:26:35;;;;;;;9.10;6.68;;;12.70;99.90;;;;;;5029997;28;20106;-48
2022/09/24 06:29:01;;;;;;;8.27;6.65;;;12.70;99.90;;;;;;5030190;28;20061;-50
2022/09/24 06:31:26;;;;;;;9.43;6.90;;;12.80;99.90;;;;;;5030097;28;20108;-48
2022/09/24 06:33:52;;;;;;;12.27;8.30;;;12.90;99.90;;;;;;5029631;28;20034;-48
2022/09/24 06:36:17;;;;;;;9.77;8.18;;;12.90;99.90;;;;;;5029973;28;20117;-50
2022/09/24 06:38:44;;;;;;;13.45;8.00;;;12.90;99.90;;;;;;5029849;28;20104;-47
2022/09/24 06:41:09;;;;;;;10.88;8.10;;;13.00;99.90;;;;;;5028667;28;20033;-49
2022/09/24 06:43:35;;;;;;;8.75;7.85;;;13.10;99.90;;;;;;5029509;28;20025;-50
2022/09/24 06:46:02;;;;;;;11.20;8.27;;;13.10;99.90;;;;;;5028648;28;20072;-51
2022/09/24 06:48:29;;;;;;;10.30;8.25;;;13.20;99.90;;;;;;5029733;28;20490;-50
2022/09/24 06:50:55;;;;;;;10.70;8.27;;;13.20;99.90;;;;;;5028562;28;20499;-48
2022/09/24 06:53:21;;;;;;;10.00;8.77;;;13.30;99.90;;;;;;5029370;28;20030;-49
2022/09/24 06:55:47;;;;;;;10.48;8.85;;;13.40;99.90;;;;;;5028919;28;20041;-48
2022/09/24 06:58:23;;;;;;;11.85;9.13;;;13.50;99.90;;;;;;5029828;28;20084;-48
2022/09/24 07:00:57;;;;;;;9.35;8.32;;;13.50;99.90;;;;;;5029844;28;20021;-48
2022/09/24 07:03:24;;;;;;;12.57;9.70;;;13.50;99.90;;;;;;5030356;28;20024;-48
2022/09/24 07:05:49;;;;;;;11.68;9.10;;;13.60;99.90;;;;;;5032093;28;20030;-51
2022/09/24 07:08:16;;;;;;;11.43;8.40;;;13.60;99.90;;;;;;5033305;28;20037;-49
2022/09/24 07:10:47;;;;;;;11.23;8.43;;;13.60;99.90;;;;;;5033272;28;20055;-50
2022/09/24 07:13:14;;;;;;;9.75;7.70;;;13.70;99.90;;;;;;5032852;28;20017;-50
2022/09/24 07:15:41;;;;;;;9.50;8.38;;;13.70;99.90;;;;;;5033148;28;20029;-48
2022/09/24 07:18:07;;;;;;;11.73;8.32;;;13.80;99.90;;;;;;5031750;28;20408;-48
2022/09/24 07:20:35;;;;;;;9.90;7.43;;;13.90;99.90;;;;;;5032969;28;20018;-50
2022/09/24 07:23:00;;;;;;;11.05;8.38;;;14.00;99.90;;;;;;5032513;28;20021;-48
2022/09/24 07:25:26;;;;;;;9.38;7.47;;;14.10;99.90;;;;;;5033017;28;20032;-50
2022/09/24 07:27:51;;;;;;;9.23;7.35;;;14.30;99.90;;;;;;5033026;28;20021;-51
2022/09/24 07:30:17;;;;;;;9.40;7.65;;;14.40;99.90;;;;;;5031928;28;20785;-49
2022/09/24 07:32:42;;;;;;;11.73;7.50;;;14.50;99.90;;;;;;5032444;28;20034;-48
2022/09/24 07:35:08;;;;;;;9.52;7.05;;;14.60;99.90;;;;;;5031615;28;20021;-48
2022/09/24 07:37:34;;;;;;;10.52;7.07;;;14.70;99.90;;;;;;5032774;28;20030;-50
2022/09/24 07:40:00;;;;;;;8.82;7.03;;;14.80;99.90;;;;;;5032653;28;20494;-48
2022/09/24 07:42:26;;;;;;;8.85;7.97;;;14.90;99.90;;;;;;5032035;28;20092;-50
2022/09/24 07:44:54;;;;;;;10.23;8.48;;;14.90;99.90;;;;;;5032596;28;20013;-49
2022/09/24 07:47:19;;;;;;;14.75;8.73;;;14.90;99.90;;;;;;5032639;28;20024;-47
2022/09/24 07:49:45;;;;;;;11.07;7.80;;;15.00;99.90;;;;;;5032429;28;20425;-47
2022/09/24 07:52:11;;;;;;;10.80;8.10;;;15.10;99.90;;;;;;5032555;28;20034;-48
2022/09/24 07:54:37;;;;;;;9.85;7.72;;;15.20;99.90;;;;;;5032080;28;20430;-47
2022/09/24 07:57:08;;;;;;;10.40;8.50;;;15.20;99.90;;;;;;5032463;28;20296;-48
2022/09/24 07:59:33;;;;;;;9.82;8.25;;;15.20;99.90;;;;;;5032415;28;20021;-50
2022/09/24 08:01:59;;;;;;;12.15;8.05;;;15.20;99.90;;;;;;5032367;28;20030;-48
2022/09/24 08:04:24;;;;;;;10.50;8.10;;;15.20;99.90;;;;;;5031817;28;20044;-48
2022/09/24 08:06:50;;;;;;;12.82;9.60;;;15.20;99.90;;;;;;5032200;28;20032;-51
2022/09/24 08:09:15;;;;;;;8.50;7.68;;;15.20;99.90;;;;;;5032246;28;20112;-49
2022/09/24 08:11:41;;;;;;;9.65;7.35;;;15.10;99.90;;;;;;5032178;28;20025;-50
2022/09/24 08:14:07;;;;;;;7.97;7.18;;;15.30;99.90;;;;;;5029422;28;20044;-49
2022/09/24 08:16:33;;;;;;;12.98;8.30;;;15.30;99.90;;;;;;5032128;28;20430;-51
2022/09/24 08:18:59;;;;;;;11.05;7.07;;;15.40;99.90;;;;;;5030503;28;20112;-48
2022/09/24 08:21:26;;;;;;;8.23;7.00;;;15.60;99.90;;;;;;5032214;28;20513;-50
2022/09/24 08:23:52;;;;;;;10.70;8.27;;;15.90;99.90;;;;;;5031456;28;20018;-49
2022/09/24 08:26:17;;;;;;;9.20;8.23;;;16.20;99.90;;;;;;5030586;28;20386;-49
2022/09/24 08:28:43;;;;;;;12.30;7.15;;;16.30;99.90;;;;;;5031853;28;20076;-51
2022/09/24 08:31:11;;;;;;;11.55;7.10;;;16.30;99.90;;;;;;5030538;28;20570;-48
2022/09/24 08:33:38;;;;;;;9.07;7.43;;;16.20;99.90;;;;;;5031218;28;20030;-48
2022/09/24 08:36:06;;;;;;;8.07;7.28;;;16.20;99.90;;;;;;5031582;28;20507;-50
2022/09/24 08:38:32;;;;;;;8.30;7.40;;;16.20;99.90;;;;;;5031743;28;20368;-49
2022/09/24 08:41:32;;;;;;;9.10;8.20;;;16.20;99.90;;;;;;5031624;28;20475;-49
2022/09/24 08:44:09;;;;;;;9.40;8.40;;;16.10;99.90;;;;;;5030995;28;20109;-49
2022/09/24 08:49:48;;;;;;;7.63;6.55;;;16.20;99.90;;;;;;5031485;28;20566;-48
2022/09/24 08:52:32;;;;;;;8.52;7.57;;;16.30;99.90;;;;;;5031262;28;20508;-51
2022/09/24 08:55:03;;;;;;;8.65;7.75;;;16.30;99.90;;;;;;5031204;28;20025;-49
2022/09/24 08:57:58;;;;;;;10.55;7.43;;;16.40;99.90;;;;;;5030074;28;20030;-48
2022/09/24 09:00:24;;;;;;;10.35;6.50;;;16.20;99.90;;;;;;5022017;28;20033;-49
2022/09/24 09:03:08;;;;;;;9.35;6.65;;;16.10;99.90;;;;;;5029396;28;20033;-50
2022/09/24 09:06:00;;;;;;;7.63;6.05;;;16.20;99.90;;;;;;5031184;28;20025;-50
2022/09/24 09:08:34;;;;;;;8.85;6.88;;;16.20;99.90;;;;;;5031234;28;20521;-50
2022/09/24 09:11:02;;;;;;;7.82;6.30;;;16.20;99.90;;;;;;5030919;28;20018;-49
2022/09/24 09:13:43;;;;;;;8.27;6.22;;;16.10;99.90;;;;;;5030396;28;20030;-49
2022/09/24 09:16:31;;;;;;;7.72;6.72;;;16.10;99.90;;;;;;5030919;28;20021;-47
2022/09/24 09:19:07;;;;;;;9.85;7.13;;;16.10;99.90;;;;;;5030708;28;20033;-47
2022/09/24 09:21:43;;;;;;;8.13;6.63;;;16.00;99.90;;;;;;5030719;28;20426;-47
2022/09/24 09:24:16;;;;;;;7.22;5.88;;;16.00;99.90;;;;;;5030287;28;20029;-49
2022/09/24 09:26:47;;;;;;;6.63;5.70;;;16.10;99.90;;;;;;5030595;28;20079;-46
2022/09/24 09:29:13;;;;;;;8.23;6.20;;;16.10;99.90;;;;;;5030819;28;20041;-48
2022/09/24 09:31:39;;;;;;;16.77;6.57;;;16.10;99.90;;;;;;5030763;28;20075;-48
2022/09/24 09:34:35;;;;;;;9.18;5.80;;;16.20;99.90;;;;;;5030069;28;20531;-50
2022/09/24 09:37:30;;;;;;;9.00;7.00;;;16.20;99.90;;;;;;5030664;28;20462;-48
2022/09/24 09:40:09;;;;;;;9.07;6.28;;;16.20;99.90;;;;;;5030528;28;20108;-48
2022/09/24 09:42:38;;;;;;;8.15;6.72;;;16.20;99.90;;;;;;5028913;28;20032;-50
2022/09/24 09:45:17;;;;;;;8.98;6.15;;;16.30;99.90;;;;;;5030483;28;20436;-48
2022/09/24 09:47:57;;;;;;;7.50;5.80;;;16.40;99.90;;;;;;5030493;28;20029;-50
2022/09/24 09:50:35;;;;;;;8.45;5.55;;;16.50;99.90;;;;;;5030345;28;20115;-50
2022/09/24 09:53:03;;;;;;;6.28;5.57;;;16.60;99.90;;;;;;5030163;28;20403;-49
2022/09/24 09:55:35;;;;;;;6.50;5.38;;;16.70;99.90;;;;;;5029119;28;20052;-49
2022/09/24 09:58:15;;;;;;;6.55;4.85;;;16.70;99.90;;;;;;5030449;28;20022;-48
2022/09/24 10:00:42;;;;;;;8.77;6.25;;;16.80;99.90;;;;;;5030464;28;20026;-50
2022/09/24 10:03:50;;;;;;;8.25;6.00;;;16.80;99.90;;;;;;5029764;28;20104;-50
2022/09/24 10:06:24;;;;;;;5.90;5.05;;;16.90;99.90;;;;;;5030351;28;20167;-48
2022/09/24 10:08:50;;;;;;;4.88;4.35;;;17.10;99.90;;;;;;5029029;28;20412;-51
2022/09/24 10:11:16;;;;;;;6.75;5.05;;;17.30;99.90;;;;;;5030229;28;20100;-50
2022/09/24 10:13:43;;;;;;;5.70;5.03;;;17.40;99.90;;;;;;5029853;28;20086;-51
2022/09/24 10:16:12;;;;;;;6.10;4.38;;;17.50;99.90;;;;;;5030279;28;20037;-50
2022/09/24 10:18:49;;;;;;;7.03;4.47;;;17.70;99.90;;;;;;5029953;28;20483;-49
2022/09/24 10:21:33;;;;;;;8.48;5.00;;;17.90;99.90;;;;;;5030250;28;20029;-51
2022/09/24 10:24:01;;;;;;;6.13;4.75;;;18.00;99.90;;;;;;5029612;28;20394;-50
2022/09/24 10:26:54;;;;;;;7.35;5.15;;;18.30;99.90;;;;;;5030132;28;20013;-51
2022/09/24 10:32:23;;;;;;;6.57;4.82;;;18.60;99.80;;;;;;5028928;28;20037;-50
2022/09/24 10:35:04;;;;;;;5.75;4.70;;;18.60;99.30;;;;;;5030048;28;20022;-50
2022/09/24 10:37:30;;;;;;;4.55;4.15;;;18.50;99.00;;;;;;5031145;28;20021;-51
2022/09/24 10:40:01;;;;;;;4.57;4.07;;;18.50;98.80;;;;;;5033788;28;20402;-49
2022/09/24 10:42:28;;;;;;;5.03;4.53;;;18.50;98.90;;;;;;5033460;28;20368;-51
2022/09/24 10:45:00;;;;;;;5.30;4.30;;;18.60;98.90;;;;;;5033604;28;20139;-49
2022/09/24 10:47:34;;;;;;;6.18;4.18;;;18.40;98.90;;;;;;5033861;28;20025;-51
2022/09/24 10:50:33;;;;;;;5.85;4.70;;;18.50;98.70;;;;;;5032426;28;20022;-49
2022/09/24 10:53:26;;;;;;;6.68;4.68;;;18.50;98.40;;;;;;5033224;28;20033;-48
2022/09/24 10:56:07;;;;;;;8.48;5.00;;;18.50;99.20;;;;;;5033628;28;20025;-49
2022/09/24 10:59:13;;;;;;;5.75;4.10;;;18.40;98.70;;;;;;5033506;28;20467;-50
2022/09/24 11:01:48;;;;;;;7.32;5.32;;;18.40;99.00;;;;;;5032211;28;20021;-52
2022/09/24 11:04:52;;;;;;;6.03;4.88;;;18.40;99.50;;;;;;5033237;28;20096;-50
2022/09/24 11:07:42;;;;;;;7.25;4.88;;;18.50;98.10;;;;;;5033128;28;20041;-50
2022/09/24 11:10:25;;;;;;;9.30;5.07;;;18.90;98.30;;;;;;5032210;28;20045;-52
2022/09/24 11:13:09;;;;;;;6.45;5.85;;;19.40;98.20;;;;;;5031647;28;20463;-51
2022/09/24 11:15:52;;;;;;;6.22;4.35;;;19.70;98.50;;;;;;5033732;28;20030;-50
2022/09/24 11:18:26;;;;;;;5.60;4.03;;;19.90;97.30;;;;;;5031606;28;20057;-51
2022/09/24 11:21:07;;;;;;;4.85;3.80;;;20.00;97.30;;;;;;5033371;28;20271;-52
2022/09/24 11:24:00;;;;;;;6.53;4.35;;;19.80;97.50;;;;;;5032707;28;20052;-52
2022/09/24 11:26:59;;;;;;;6.50;4.45;;;19.60;96.10;;;;;;5033034;28;20025;-50
2022/09/24 11:29:53;;;;;;;7.15;4.50;;;19.30;97.10;;;;;;5031921;28;20030;-52
2022/09/24 11:32:31;;;;;;;8.15;4.90;;;19.20;96.90;;;;;;5032721;28;20143;-51
2022/09/24 11:35:19;;;;;;;5.40;4.90;;;19.10;97.00;;;;;;5032779;28;20095;-51
2022/09/24 11:38:07;;;;;;;10.38;5.30;;;18.90;97.60;;;;;;5032871;28;20080;-51
2022/09/24 11:40:47;;;;;;;7.78;5.20;;;18.80;98.70;;;;;;5032873;28;20029;-49
2022/09/24 11:43:17;;;;;;;5.03;4.32;;;18.60;97.90;;;;;;5030976;28;20430;-50
2022/09/24 11:45:52;;;;;;;5.90;5.20;;;18.50;98.70;;;;;;5032991;28;20034;-50
2022/09/24 11:48:49;;;;;;;7.20;4.20;;;18.50;98.10;;;;;;5032048;28;20037;-50
2022/09/24 11:51:54;;;;;;;8.57;5.85;;;18.40;99.00;;;;;;5032712;28;20032;-48
2022/09/24 11:54:29;;;;;;;7.15;4.50;;;18.40;97.80;;;;;;5009606;28;20069;-49
2022/09/24 11:57:27;;;;;;;8.35;4.50;;;18.40;98.60;;;;;;5029771;28;20038;-50
2022/09/24 12:00:06;;;;;;;10.40;4.63;;;18.40;98.80;;;;;;5031972;28;20083;-49
2022/09/24 12:02:45;;;;;;;5.50;4.45;;;18.50;98.40;;;;;;5031916;28;20072;-51
2022/09/24 12:05:25;;;;;;;5.13;4.18;;;18.40;98.20;;;;;;5032408;28;20014;-51
2022/09/24 12:07:56;;;;;;;6.88;4.70;;;18.40;98.10;;;;;;5032373;28;20104;-50
2022/09/24 12:10:38;;;;;;;5.40;4.53;;;18.30;98.40;;;;;;5032312;28;20045;-50
2022/09/24 12:13:19;;;;;;;6.45;4.47;;;18.10;98.20;;;;;;5031834;28;20029;-56
2022/09/24 12:16:15;;;;;;;8.48;5.03;;;18.10;99.00;;;;;;5032219;28;20026;-52
2022/09/24 12:18:51;;;;;;;7.30;4.90;;;18.10;98.70;;;;;;5031826;28;20515;-50
2022/09/24 12:21:22;;;;;;;6.75;4.68;;;18.00;99.40;;;;;;5032097;28;20098;-50
2022/09/24 12:23:50;;;;;;;6.43;4.95;;;18.00;99.50;;;;;;5031572;28;20159;-48
2022/09/24 12:26:18;;;;;;;8.10;5.45;;;18.00;98.60;;;;;;5032111;28;20096;-51
2022/09/24 12:35:18;;;;;;;7.88;4.50;;;18.00;98.90;;;;;;5032049;28;20446;-50
2022/09/24 12:37:48;;;;;;;5.63;4.60;;;18.00;99.30;;;;;;5021243;28;20033;-49
2022/09/24 12:40:21;;;;;;;8.90;4.80;;;18.00;99.70;;;;;;5031679;28;20022;-52
2022/09/24 12:42:53;;;;;;;5.72;4.50;;;18.00;99.30;;;;;;5029917;28;20022;-51
2022/09/24 12:45:21;;;;;;;6.63;4.75;;;18.00;98.90;;;;;;5031668;28;20029;-48
2022/09/24 12:48:00;;;;;;;7.15;4.13;;;17.90;99.50;;;;;;5031469;28;20494;-50
2022/09/24 12:50:32;;;;;;;4.90;4.25;;;17.90;99.70;;;;;;5030224;28;20037;-49
2022/09/24 12:52:58;;;;;;;7.03;5.40;;;17.90;99.20;;;;;;5031063;28;20308;-49
2022/09/24 12:55:27;;;;;;;6.45;4.57;;;17.90;99.10;;;;;;5030166;28;20120;-50
2022/09/24 12:58:04;;;;;;;6.25;4.72;;;17.90;99.40;;;;;;5031306;28;20112;-51
2022/09/24 13:00:33;;;;;;;5.38;3.75;;;17.70;99.90;;;;;;5030938;28;20116;-50
2022/09/24 13:03:00;;;;;;;4.75;4.00;;;17.70;99.90;;;;;;5031055;28;20348;-50
2022/09/24 13:05:33;;;;;;;6.40;4.00;;;17.70;99.90;;;;;;5031264;28;20028;-51
2022/09/24 13:08:23;;;;;;;4.63;4.05;;;17.60;99.90;;;;;;5031249;28;20094;-51
2022/09/24 13:10:59;;;;;;;5.95;3.90;;;17.60;99.20;;;;;;5031108;28;20026;-51
2022/09/24 13:13:27;;;;;;;6.55;4.00;;;17.50;99.40;;;;;;5030720;28;20563;-52
2022/09/24 13:16:06;;;;;;;8.80;5.00;;;17.50;99.90;;;;;;5029786;28;20033;-52
2022/09/24 13:18:34;;;;;;;6.05;4.50;;;17.40;99.50;;;;;;5030916;28;20079;-51
2022/09/24 13:21:07;;;;;;;5.05;3.90;;;17.30;99.80;;;;;;5031471;28;20056;-49
2022/09/24 13:23:53;;;;;;;6.70;3.70;;;17.40;99.90;;;;;;5030695;28;20192;-48
2022/09/24 13:26:32;;;;;;;5.80;4.68;;;17.30;99.90;;;;;;5031086;28;20032;-47
2022/09/24 13:29:04;;;;;;;10.50;5.32;;;17.30;99.90;;;;;;5030816;28;20076;-48
2022/09/24 13:32:01;;;;;;;8.00;5.40;;;17.10;99.90;;;;;;5030711;28;20025;-51